sensor_id;sensor_type;location;lat;lon;timestamp;pressure;altitude;pressure_sealevel;temperature;humidity
33280;BME280;20403;43.114;12.434;2023-06-26T00:01:14;99159.03;;;16.55;100.00
33280;BME280;20403;43.114;12.434;2023-06-26T00:03:39;99161.91;;;16.54;100.00
33280;BME280;20403;43.114;12.434;2023-06-26T00:06:04;99156.91;;;16.57;100.00
33280;BME280;20403;43.114;12.434;2023-06-26T00:08:30;99158.22;;;16.55;100.00
33280;BME280;20403;43.114;12.434;2023-06-26T00:10:55;99159.25;;;16.49;100.00
33280;BME280;20403;43.114;12.434;2023-06-26T00:13:22;99152.69;;;16.51;100.00
33280;BME280;20403;43.114;12.434;2023-06-26T00:15:47;99154.75;;;16.34;100.00
33280;BME280;20403;43.114;12.434;2023-06-26T00:18:13;99147.66;;;16.39;100.00
33280;BME280;20403;43.114;12.434;2023-06-26T00:20:38;99156.31;;;16.35;100.00
33280;BME280;20403;43.114;12.434;2023-06-26T00:23:04;99147.63;;;16.29;100.00
33280;BME280;20403;43.114;12.434;2023-06-26T00:25:33;99146.56;;;16.30;100.00
33280;BME280;20403;43.114;12.434;2023-06-26T00:27:58;99142.59;;;16.28;100.00
33280;BME280;20403;43.114;12.434;2023-06-26T00:30:23;99141.28;;;16.20;100.00
33280;BME280;20403;43.114;12.434;2023-06-26T00:32:49;99136.72;;;16.10;100.00
33280;BME280;20403;43.114;12.434;2023-06-26T00:35:15;99139.38;;;16.10;100.00
33280;BME280;20403;43.114;12.434;2023-06-26T00:37:40;99133.59;;;16.08;100.00
33280;BME280;20403;43.114;12.434;2023-06-26T00:40:06;99129.66;;;16.11;100.00
33280;BME280;20403;43.114;12.434;2023-06-26T00:42:31;99127.81;;;16.11;100.00
33280;BME280;20403;43.114;12.434;2023-06-26T00:44:57;99133.06;;;16.06;100.00
33280;BME280;20403;43.114;12.434;2023-06-26T00:47:22;99139.31;;;15.95;100.00
33280;BME280;20403;43.114;12.434;2023-06-26T00:49:49;99133.53;;;15.98;100.00
33280;BME280;20403;43.114;12.434;2023-06-26T00:52:15;99136.41;;;15.91;100.00
33280;BME280;20403;43.114;12.434;2023-06-26T00:54:42;99131.97;;;15.97;100.00
33280;BME280;20403;43.114;12.434;2023-06-26T00:57:07;99134.03;;;15.90;100.00
33280;BME280;20403;43.114;12.434;2023-06-26T00:59:34;99128.78;;;15.90;100.00
33280;BME280;20403;43.114;12.434;2023-06-26T01:01:59;99133.75;;;15.86;100.00
33280;BME280;20403;43.114;12.434;2023-06-26T01:04:25;99132.66;;;15.82;100.00
33280;BME280;20403;43.114;12.434;2023-06-26T01:06:54;99134.00;;;15.85;100.00
33280;BME280;20403;43.114;12.434;2023-06-26T01:09:21;99134.00;;;15.85;100.00
33280;BME280;20403;43.114;12.434;2023-06-26T01:11:47;99131.66;;;15.88;100.00
33280;BME280;20403;43.114;12.434;2023-06-26T01:14:13;99140.78;;;15.75;100.00
33280;BME280;20403;43.114;12.434;2023-06-26T01:16:40;99134.66;;;15.65;100.00
33280;BME280;20403;43.114;12.434;2023-06-26T01:19:11;99131.16;;;15.54;100.00
33280;BME280;20403;43.114;12.434;2023-06-26T01:21:42;99130.28;;;15.43;100.00
33280;BME280;20403;43.114;12.434;2023-06-26T01:24:18;99135.88;;;15.52;100.00
33280;BME280;20403;43.114;12.434;2023-06-26T01:26:52;99136.38;;;15.49;100.00
33280;BME280;20403;43.114;12.434;2023-06-26T01:29:19;99134.78;;;15.48;100.00
33280;BME280;20403;43.114;12.434;2023-06-26T01:31:49;99135.91;;;15.57;100.00
33280;BME280;20403;43.114;12.434;2023-06-26T01:34:17;99138.00;;;15.55;100.00
33280;BME280;20403;43.114;12.434;2023-06-26T01:36:44;99134.63;;;15.60;100.00
33280;BME280;20403;43.114;12.434;2023-06-26T01:39:10;99139.06;;;15.59;100.00
33280;BME280;20403;43.114;12.434;2023-06-26T01:41:35;99130.63;;;15.57;100.00
33280;BME280;20403;43.114;12.434;2023-06-26T01:44:23;99136.16;;;15.55;100.00
33280;BME280;20403;43.114;12.434;2023-06-26T01:47:02;99132.75;;;15.55;100.00
33280;BME280;20403;43.114;12.434;2023-06-26T01:49:46;99133.50;;;15.50;100.00
33280;BME280;20403;43.114;12.434;2023-06-26T01:55:15;99132.22;;;15.53;100.00
33280;BME280;20403;43.114;12.434;2023-06-26T01:57:43;99137.72;;;15.51;100.00
33280;BME280;20403;43.114;12.434;2023-06-26T02:00:11;99133.44;;;15.40;100.00
33280;BME280;20403;43.114;12.434;2023-06-26T02:02:36;99136.28;;;15.39;100.00
33280;BME280;20403;43.114;12.434;2023-06-26T02:05:02;99132.56;;;15.29;100.00
33280;BME280;20403;43.114;12.434;2023-06-26T02:07:27;99127.81;;;15.26;100.00
33280;BME280;20403;43.114;12.434;2023-06-26T02:09:53;99135.25;;;15.34;100.00
33280;BME280;20403;43.114;12.434;2023-06-26T06:17:02;99119.44;;;20.53;100.00
33280;BME280;20403;43.114;12.434;2023-06-26T06:19:28;99123.53;;;20.64;100.00
33280;BME280;20403;43.114;12.434;2023-06-26T06:21:53;99123.59;;;20.78;100.00
33280;BME280;20403;43.114;12.434;2023-06-26T06:24:19;99122.38;;;20.89;100.00
33280;BME280;20403;43.114;12.434;2023-06-26T06:26:45;99123.78;;;21.01;100.00
33280;BME280;20403;43.114;12.434;2023-06-26T06:29:10;99116.44;;;21.11;100.00
33280;BME280;20403;43.114;12.434;2023-06-26T06:31:36;99118.72;;;21.18;100.00
33280;BME280;20403;43.114;12.434;2023-06-26T06:34:01;99118.47;;;21.33;100.00
33280;BME280;20403;43.114;12.434;2023-06-26T06:36:27;99114.59;;;21.45;100.00
33280;BME280;20403;43.114;12.434;2023-06-26T06:38:52;99124.91;;;21.60;100.00
33280;BME280;20403;43.114;12.434;2023-06-26T06:41:19;99116.44;;;21.72;100.00
33280;BME280;20403;43.114;12.434;2023-06-26T06:43:45;99122.66;;;21.81;100.00
33280;BME280;20403;43.114;12.434;2023-06-26T06:46:11;99126.41;;;21.94;100.00
33280;BME280;20403;43.114;12.434;2023-06-26T06:48:36;99123.06;;;22.02;100.00
33280;BME280;20403;43.114;12.434;2023-06-26T06:51:01;99123.25;;;22.06;100.00
33280;BME280;20403;43.114;12.434;2023-06-26T06:53:27;99120.56;;;22.19;100.00
33280;BME280;20403;43.114;12.434;2023-06-26T06:55:52;99122.34;;;22.24;100.00
33280;BME280;20403;43.114;12.434;2023-06-26T06:58:18;99124.69;;;22.39;100.00
33280;BME280;20403;43.114;12.434;2023-06-26T07:00:48;99109.19;;;22.55;100.00
33280;BME280;20403;43.114;12.434;2023-06-26T07:03:13;99118.69;;;22.70;100.00
33280;BME280;20403;43.114;12.434;2023-06-26T07:08:04;99111.53;;;23.16;100.00
33280;BME280;20403;43.114;12.434;2023-06-26T07:10:29;99112.25;;;23.39;100.00
33280;BME280;20403;43.114;12.434;2023-06-26T07:12:55;99116.09;;;23.55;100.00
33280;BME280;20403;43.114;12.434;2023-06-26T07:15:20;99114.41;;;23.59;100.00
33280;BME280;20403;43.114;12.434;2023-06-26T07:17:46;99113.38;;;23.78;100.00
33280;BME280;20403;43.114;12.434;2023-06-26T07:20:12;99108.25;;;23.90;100.00
33280;BME280;20403;43.114;12.434;2023-06-26T07:22:41;99110.00;;;24.03;100.00
33280;BME280;20403;43.114;12.434;2023-06-26T07:25:07;99112.06;;;24.24;100.00
33280;BME280;20403;43.114;12.434;2023-06-26T07:27:39;99109.41;;;24.41;100.00
33280;BME280;20403;43.114;12.434;2023-06-26T07:30:05;99109.13;;;24.43;100.00
33280;BME280;20403;43.114;12.434;2023-06-26T07:32:30;99103.00;;;24.68;100.00
33280;BME280;20403;43.114;12.434;2023-06-26T07:34:56;99101.25;;;24.81;100.00
33280;BME280;20403;43.114;12.434;2023-06-26T07:37:21;99095.63;;;24.91;100.00
33280;BME280;20403;43.114;12.434;2023-06-26T07:39:48;99101.88;;;24.95;100.00
33280;BME280;20403;43.114;12.434;2023-06-26T07:42:14;99113.31;;;25.05;100.00
33280;BME280;20403;43.114;12.434;2023-06-26T07:44:41;99109.38;;;25.11;100.00
33280;BME280;20403;43.114;12.434;2023-06-26T07:47:06;99114.34;;;25.39;100.00
33280;BME280;20403;43.114;12.434;2023-06-26T07:49:32;99110.38;;;25.53;100.00
33280;BME280;20403;43.114;12.434;2023-06-26T07:51:57;99104.66;;;25.64;100.00
33280;BME280;20403;43.114;12.434;2023-06-26T07:54:23;99107.69;;;25.83;100.00
33280;BME280;20403;43.114;12.434;2023-06-26T07:56:58;99110.63;;;25.99;100.00
33280;BME280;20403;43.114;12.434;2023-06-26T07:59:25;99109.72;;;25.95;96.62
33280;BME280;20403;43.114;12.434;2023-06-26T08:01:52;99108.88;;;26.03;100.00
33280;BME280;20403;43.114;12.434;2023-06-26T08:04:22;99100.09;;;26.24;100.00
33280;BME280;20403;43.114;12.434;2023-06-26T08:06:48;99100.63;;;26.38;100.00
33280;BME280;20403;43.114;12.434;2023-06-26T08:09:14;99095.31;;;26.50;95.48
33280;BME280;20403;43.114;12.434;2023-06-26T08:11:39;99096.66;;;26.65;94.87
33280;BME280;20403;43.114;12.434;2023-06-26T08:14:05;99096.94;;;26.85;100.00
33280;BME280;20403;43.114;12.434;2023-06-26T08:16:30;99104.66;;;26.98;100.00
33280;BME280;20403;43.114;12.434;2023-06-26T08:18:55;99103.34;;;27.04;96.34
33280;BME280;20403;43.114;12.434;2023-06-26T08:21:21;99108.72;;;27.17;100.00
33280;BME280;20403;43.114;12.434;2023-06-26T08:23:46;99107.78;;;27.34;92.89
33280;BME280;20403;43.114;12.434;2023-06-26T08:26:12;99106.78;;;27.51;100.00
33280;BME280;20403;43.114;12.434;2023-06-26T08:28:38;99113.72;;;27.76;96.79
33280;BME280;20403;43.114;12.434;2023-06-26T08:31:03;99101.44;;;27.75;75.23
33280;BME280;20403;43.114;12.434;2023-06-26T08:33:28;99112.84;;;27.84;82.46
33280;BME280;20403;43.114;12.434;2023-06-26T08:35:54;99106.78;;;28.00;78.14
33280;BME280;20403;43.114;12.434;2023-06-26T08:38:19;99099.50;;;28.00;74.92
33280;BME280;20403;43.114;12.434;2023-06-26T08:40:46;99101.84;;;28.14;85.60
33280;BME280;20403;43.114;12.434;2023-06-26T08:43:11;99100.38;;;28.29;75.79
33280;BME280;20403;43.114;12.434;2023-06-26T08:45:37;99103.38;;;28.27;86.69
33280;BME280;20403;43.114;12.434;2023-06-26T08:48:03;99104.03;;;28.37;75.95
33280;BME280;20403;43.114;12.434;2023-06-26T08:50:33;99100.75;;;28.43;70.76
33280;BME280;20403;43.114;12.434;2023-06-26T08:55:43;99090.22;;;28.79;72.38
33280;BME280;20403;43.114;12.434;2023-06-26T08:58:09;99081.53;;;28.98;69.84
33280;BME280;20403;43.114;12.434;2023-06-26T09:00:35;99091.28;;;28.90;66.01
33280;BME280;20403;43.114;12.434;2023-06-26T09:03:03;99087.31;;;28.84;68.62
33280;BME280;20403;43.114;12.434;2023-06-26T09:05:29;99088.03;;;28.97;65.88
33280;BME280;20403;43.114;12.434;2023-06-26T09:07:54;99084.25;;;29.14;68.03
33280;BME280;20403;43.114;12.434;2023-06-26T09:10:21;99083.81;;;29.27;66.13
33280;BME280;20403;43.114;12.434;2023-06-26T09:12:47;99088.69;;;29.38;68.92
33280;BME280;20403;43.114;12.434;2023-06-26T09:15:19;99087.19;;;29.40;67.81
33280;BME280;20403;43.114;12.434;2023-06-26T09:17:45;99090.16;;;29.35;68.17
33280;BME280;20403;43.114;12.434;2023-06-26T09:20:10;99083.75;;;29.40;63.97
33280;BME280;20403;43.114;12.434;2023-06-26T09:22:37;99082.31;;;29.46;61.53
33280;BME280;20403;43.114;12.434;2023-06-26T09:25:05;99075.38;;;29.61;62.00
33280;BME280;20403;43.114;12.434;2023-06-26T09:27:30;99074.78;;;29.51;62.69
33280;BME280;20403;43.114;12.434;2023-06-26T09:29:57;99071.56;;;29.62;59.74
33280;BME280;20403;43.114;12.434;2023-06-26T09:32:25;99063.00;;;29.72;62.47
33280;BME280;20403;43.114;12.434;2023-06-26T09:34:52;99062.16;;;29.87;57.53
33280;BME280;20403;43.114;12.434;2023-06-26T09:37:20;99057.25;;;30.09;66.85
33280;BME280;20403;43.114;12.434;2023-06-26T09:39:45;99059.06;;;30.24;63.47
33280;BME280;20403;43.114;12.434;2023-06-26T09:42:13;99058.31;;;30.24;61.67
33280;BME280;20403;43.114;12.434;2023-06-26T09:44:46;99054.28;;;30.53;64.73
33280;BME280;20403;43.114;12.434;2023-06-26T09:47:15;99054.72;;;30.55;56.36
33280;BME280;20403;43.114;12.434;2023-06-26T09:49:42;99051.19;;;30.51;56.51
33280;BME280;20403;43.114;12.434;2023-06-26T09:52:08;99053.16;;;30.77;56.10
33280;BME280;20403;43.114;12.434;2023-06-26T09:54:33;99054.28;;;30.95;55.08
33280;BME280;20403;43.114;12.434;2023-06-26T09:57:10;99055.06;;;30.96;50.85
33280;BME280;20403;43.114;12.434;2023-06-26T09:59:36;99059.09;;;31.06;51.01
33280;BME280;20403;43.114;12.434;2023-06-26T10:02:02;99058.81;;;31.14;52.39
33280;BME280;20403;43.114;12.434;2023-06-26T10:04:27;99055.72;;;31.12;49.83
33280;BME280;20403;43.114;12.434;2023-06-26T10:06:56;99059.97;;;31.13;50.64
33280;BME280;20403;43.114;12.434;2023-06-26T10:09:23;99059.13;;;31.09;50.62
33280;BME280;20403;43.114;12.434;2023-06-26T10:14:27;99053.28;;;31.30;49.69
33280;BME280;20403;43.114;12.434;2023-06-26T10:16:57;99064.47;;;31.55;49.23
33280;BME280;20403;43.114;12.434;2023-06-26T10:19:24;99059.16;;;31.59;48.63
33280;BME280;20403;43.114;12.434;2023-06-26T10:21:55;99057.56;;;31.54;48.20
33280;BME280;20403;43.114;12.434;2023-06-26T10:24:22;99059.19;;;31.36;47.72
33280;BME280;20403;43.114;12.434;2023-06-26T10:26:50;99061.78;;;31.55;48.85
33280;BME280;20403;43.114;12.434;2023-06-26T10:29:17;99052.44;;;31.76;48.46
33280;BME280;20403;43.114;12.434;2023-06-26T10:31:48;99053.38;;;31.87;48.01
33280;BME280;20403;43.114;12.434;2023-06-26T10:34:15;99057.78;;;31.99;47.07
33280;BME280;20403;43.114;12.434;2023-06-26T10:36:41;99050.00;;;31.94;45.61
33280;BME280;20403;43.114;12.434;2023-06-26T10:39:06;99045.72;;;31.93;44.87
33280;BME280;20403;43.114;12.434;2023-06-26T10:41:39;99056.72;;;32.07;45.23
33280;BME280;20403;43.114;12.434;2023-06-26T10:44:11;99059.81;;;32.09;45.31
33280;BME280;20403;43.114;12.434;2023-06-26T10:47:03;99057.81;;;32.33;46.72
33280;BME280;20403;43.114;12.434;2023-06-26T10:49:29;99050.09;;;32.35;45.12
33280;BME280;20403;43.114;12.434;2023-06-26T10:51:55;99051.47;;;32.52;44.87
33280;BME280;20403;43.114;12.434;2023-06-26T10:54:23;99050.31;;;32.53;45.59
33280;BME280;20403;43.114;12.434;2023-06-26T10:56:50;99046.56;;;32.61;45.60
33280;BME280;20403;43.114;12.434;2023-06-26T10:59:21;99048.63;;;32.41;42.83
33280;BME280;20403;43.114;12.434;2023-06-26T11:01:54;99043.28;;;32.44;43.89
33280;BME280;20403;43.114;12.434;2023-06-26T11:04:53;99053.44;;;32.55;45.66
33280;BME280;20403;43.114;12.434;2023-06-26T11:07:24;99051.97;;;32.61;44.37
33280;BME280;20403;43.114;12.434;2023-06-26T11:10:17;99038.59;;;32.79;43.87
33280;BME280;20403;43.114;12.434;2023-06-26T11:12:44;99040.94;;;32.80;43.32
33280;BME280;20403;43.114;12.434;2023-06-26T11:15:14;99039.16;;;32.99;44.90
33280;BME280;20403;43.114;12.434;2023-06-26T11:17:41;99039.91;;;32.96;44.13
33280;BME280;20403;43.114;12.434;2023-06-26T11:20:08;99033.81;;;33.02;43.96
33280;BME280;20403;43.114;12.434;2023-06-26T11:22:36;99037.78;;;33.16;43.57
33280;BME280;20403;43.114;12.434;2023-06-26T11:25:02;99035.81;;;33.13;45.72
33280;BME280;20403;43.114;12.434;2023-06-26T11:27:37;99037.63;;;33.01;43.72
33280;BME280;20403;43.114;12.434;2023-06-26T11:30:03;99030.66;;;32.97;43.35
33280;BME280;20403;43.114;12.434;2023-06-26T11:32:29;99031.88;;;33.03;43.56
33280;BME280;20403;43.114;12.434;2023-06-26T11:34:54;99040.81;;;33.07;44.15
33280;BME280;20403;43.114;12.434;2023-06-26T11:37:21;99033.94;;;33.20;44.27
33280;BME280;20403;43.114;12.434;2023-06-26T11:39:47;99030.31;;;33.02;43.62
33280;BME280;20403;43.114;12.434;2023-06-26T11:42:12;99038.59;;;32.79;45.40
33280;BME280;20403;43.114;12.434;2023-06-26T11:44:42;99040.59;;;32.85;45.65
33280;BME280;20403;43.114;12.434;2023-06-26T11:47:20;99039.34;;;33.17;43.87
33280;BME280;20403;43.114;12.434;2023-06-26T11:49:47;99039.63;;;33.04;43.73
33280;BME280;20403;43.114;12.434;2023-06-26T11:52:14;99041.28;;;33.16;43.33
33280;BME280;20403;43.114;12.434;2023-06-26T11:54:40;99035.25;;;33.37;44.54
33280;BME280;20403;43.114;12.434;2023-06-26T11:57:06;99035.59;;;33.32;44.40
33280;BME280;20403;43.114;12.434;2023-06-26T11:59:34;99032.72;;;33.62;44.81
33280;BME280;20403;43.114;12.434;2023-06-26T12:02:00;99042.72;;;33.62;43.19
33280;BME280;20403;43.114;12.434;2023-06-26T12:04:25;99045.31;;;33.47;43.48
33280;BME280;20403;43.114;12.434;2023-06-26T12:06:52;99045.03;;;33.60;44.36
33280;BME280;20403;43.114;12.434;2023-06-26T12:09:23;99042.78;;;33.73;44.51
33280;BME280;20403;43.114;12.434;2023-06-26T12:11:52;99034.75;;;33.83;44.41
33280;BME280;20403;43.114;12.434;2023-06-26T12:14:20;99039.34;;;33.83;44.76
33280;BME280;20403;43.114;12.434;2023-06-26T12:16:46;99022.34;;;33.82;43.47
33280;BME280;20403;43.114;12.434;2023-06-26T12:19:12;99032.75;;;33.73;42.69
33280;BME280;20403;43.114;12.434;2023-06-26T12:24:07;99027.31;;;33.66;41.97
33280;BME280;20403;43.114;12.434;2023-06-26T12:26:33;99023.72;;;33.55;42.59
33280;BME280;20403;43.114;12.434;2023-06-26T12:29:06;99026.44;;;33.55;44.20
33280;BME280;20403;43.114;12.434;2023-06-26T12:31:33;99027.53;;;33.43;42.58
33280;BME280;20403;43.114;12.434;2023-06-26T12:33:59;99022.22;;;33.57;42.90
33280;BME280;20403;43.114;12.434;2023-06-26T12:36:25;99022.13;;;33.43;42.03
33280;BME280;20403;43.114;12.434;2023-06-26T12:38:52;99016.72;;;33.43;40.92
33280;BME280;20403;43.114;12.434;2023-06-26T12:41:18;99024.38;;;33.34;42.68
33280;BME280;20403;43.114;12.434;2023-06-26T12:43:46;99023.63;;;33.33;44.75
33280;BME280;20403;43.114;12.434;2023-06-26T12:46:11;99025.19;;;33.38;46.88
33280;BME280;20403;43.114;12.434;2023-06-26T12:51:09;99028.31;;;33.43;41.44
33280;BME280;20403;43.114;12.434;2023-06-26T12:53:34;99029.28;;;33.17;41.31
33280;BME280;20403;43.114;12.434;2023-06-26T12:56:00;99023.50;;;33.15;41.06
33280;BME280;20403;43.114;12.434;2023-06-26T12:58:25;99017.41;;;33.25;41.56
33280;BME280;20403;43.114;12.434;2023-06-26T13:00:50;99023.88;;;33.17;42.08
33280;BME280;20403;43.114;12.434;2023-06-26T13:03:16;99026.25;;;33.22;40.00
33280;BME280;20403;43.114;12.434;2023-06-26T13:05:41;99024.41;;;33.37;40.64
33280;BME280;20403;43.114;12.434;2023-06-26T13:08:07;99017.47;;;33.40;40.57
33280;BME280;20403;43.114;12.434;2023-06-26T13:10:33;99027.09;;;33.30;42.51
33280;BME280;20403;43.114;12.434;2023-06-26T13:12:58;99029.34;;;33.21;40.68
33280;BME280;20403;43.114;12.434;2023-06-26T13:15:24;99030.91;;;33.25;43.85
33280;BME280;20403;43.114;12.434;2023-06-26T13:17:49;99021.31;;;33.39;43.42
33280;BME280;20403;43.114;12.434;2023-06-26T13:20:14;99020.50;;;33.31;42.56
33280;BME280;20403;43.114;12.434;2023-06-26T13:22:40;99020.72;;;33.04;39.88
33280;BME280;20403;43.114;12.434;2023-06-26T13:25:05;99028.19;;;32.77;40.02
33280;BME280;20403;43.114;12.434;2023-06-26T13:27:31;99025.38;;;32.63;38.72
33280;BME280;20403;43.114;12.434;2023-06-26T13:29:56;99035.34;;;32.59;41.42
33280;BME280;20403;43.114;12.434;2023-06-26T13:32:22;99028.53;;;32.72;41.57
33280;BME280;20403;43.114;12.434;2023-06-26T13:34:47;99019.56;;;32.64;39.55
33280;BME280;20403;43.114;12.434;2023-06-26T13:37:13;99028.06;;;32.63;40.20
33280;BME280;20403;43.114;12.434;2023-06-26T13:39:39;99023.03;;;32.65;41.51
33280;BME280;20403;43.114;12.434;2023-06-26T13:42:04;99026.13;;;32.63;41.16
33280;BME280;20403;43.114;12.434;2023-06-26T13:44:30;99028.84;;;32.67;43.73
33280;BME280;20403;43.114;12.434;2023-06-26T13:46:55;99025.97;;;32.49;44.07
33280;BME280;20403;43.114;12.434;2023-06-26T13:49:21;99026.59;;;32.35;40.10
33280;BME280;20403;43.114;12.434;2023-06-26T13:51:46;99036.56;;;32.31;39.06
33280;BME280;20403;43.114;12.434;2023-06-26T13:54:13;99022.75;;;32.02;40.38
33280;BME280;20403;43.114;12.434;2023-06-26T13:56:38;99019.41;;;31.82;41.95
33280;BME280;20403;43.114;12.434;2023-06-26T13:59:04;99020.50;;;31.78;41.94
33280;BME280;20403;43.114;12.434;2023-06-26T14:01:29;99022.47;;;31.81;41.59
33280;BME280;20403;43.114;12.434;2023-06-26T14:03:55;99017.47;;;31.83;41.97
33280;BME280;20403;43.114;12.434;2023-06-26T14:06:20;99019.03;;;31.84;43.68
33280;BME280;20403;43.114;12.434;2023-06-26T14:08:45;99026.59;;;31.75;40.38
33280;BME280;20403;43.114;12.434;2023-06-26T14:11:11;99016.91;;;31.70;41.08
33280;BME280;20403;43.114;12.434;2023-06-26T14:13:36;99016.88;;;31.67;42.03
33280;BME280;20403;43.114;12.434;2023-06-26T14:16:02;99016.69;;;31.52;42.57
33280;BME280;20403;43.114;12.434;2023-06-26T14:18:27;99025.41;;;31.42;42.85
33280;BME280;20403;43.114;12.434;2023-06-26T14:20:53;99014.16;;;31.40;43.18
33280;BME280;20403;43.114;12.434;2023-06-26T14:23:19;99015.78;;;31.41;44.61
33280;BME280;20403;43.114;12.434;2023-06-26T14:25:44;99011.91;;;31.42;43.89
33280;BME280;20403;43.114;12.434;2023-06-26T14:28:09;99014.63;;;31.42;44.71
33280;BME280;20403;43.114;12.434;2023-06-26T14:30:35;99012.97;;;31.37;45.64
33280;BME280;20403;43.114;12.434;2023-06-26T14:33:00;99009.47;;;31.33;45.27
33280;BME280;20403;43.114;12.434;2023-06-26T14:35:25;99010.19;;;31.30;45.93
33280;BME280;20403;43.114;12.434;2023-06-26T14:37:51;99004.78;;;31.30;44.56
33280;BME280;20403;43.114;12.434;2023-06-26T14:40:16;99005.38;;;31.16;44.37
33280;BME280;20403;43.114;12.434;2023-06-26T14:42:42;99004.84;;;31.07;43.18
33280;BME280;20403;43.114;12.434;2023-06-26T14:45:08;99005.16;;;31.02;43.77
33280;BME280;20403;43.114;12.434;2023-06-26T14:47:34;99005.56;;;31.04;45.24
33280;BME280;20403;43.114;12.434;2023-06-26T14:50:00;99010.53;;;31.02;46.55
33280;BME280;20403;43.114;12.434;2023-06-26T14:52:25;99006.66;;;30.99;46.20
33280;BME280;20403;43.114;12.434;2023-06-26T14:54:50;99002.88;;;31.04;47.76
33280;BME280;20403;43.114;12.434;2023-06-26T14:57:16;98999.84;;;31.06;47.64
33280;BME280;20403;43.114;12.434;2023-06-26T14:59:42;98998.22;;;31.01;45.97
33280;BME280;20403;43.114;12.434;2023-06-26T15:02:07;98996.22;;;30.98;46.59
33280;BME280;20403;43.114;12.434;2023-06-26T15:04:32;98996.88;;;30.91;47.09
33280;BME280;20403;43.114;12.434;2023-06-26T15:06:58;98991.88;;;30.90;46.99
33280;BME280;20403;43.114;12.434;2023-06-26T15:09:24;98992.59;;;30.87;47.94
33280;BME280;20403;43.114;12.434;2023-06-26T15:11:49;98982.97;;;30.86;47.04
33280;BME280;20403;43.114;12.434;2023-06-26T15:14:14;98981.66;;;30.79;45.75
33280;BME280;20403;43.114;12.434;2023-06-26T15:16:40;98985.50;;;30.78;47.79
33280;BME280;20403;43.114;12.434;2023-06-26T15:19:05;98977.78;;;30.77;46.71
33280;BME280;20403;43.114;12.434;2023-06-26T15:21:31;98992.69;;;30.71;47.81
33280;BME280;20403;43.114;12.434;2023-06-26T15:23:56;98976.78;;;30.62;46.82
33280;BME280;20403;43.114;12.434;2023-06-26T15:26:22;98984.06;;;30.62;47.20
33280;BME280;20403;43.114;12.434;2023-06-26T15:28:47;98972.75;;;30.52;45.88
33280;BME280;20403;43.114;12.434;2023-06-26T15:31:13;98982.03;;;30.55;45.95
33280;BME280;20403;43.114;12.434;2023-06-26T15:33:38;98974.97;;;30.47;45.73
33280;BME280;20403;43.114;12.434;2023-06-26T15:36:04;98971.00;;;30.41;46.17
33280;BME280;20403;43.114;12.434;2023-06-26T15:38:30;98976.78;;;30.39;46.13
33280;BME280;20403;43.114;12.434;2023-06-26T15:40:56;98973.66;;;30.37;46.15
33280;BME280;20403;43.114;12.434;2023-06-26T15:43:21;98970.19;;;30.36;45.05
33280;BME280;20403;43.114;12.434;2023-06-26T15:45:47;98976.63;;;30.32;43.79
33280;BME280;20403;43.114;12.434;2023-06-26T15:48:12;98969.88;;;30.22;44.22
33280;BME280;20403;43.114;12.434;2023-06-26T15:50:38;98956.81;;;30.21;43.84
33280;BME280;20403;43.114;12.434;2023-06-26T15:53:04;98970.56;;;30.15;42.84
33280;BME280;20403;43.114;12.434;2023-06-26T15:55:29;98961.41;;;30.20;44.17
33280;BME280;20403;43.114;12.434;2023-06-26T15:57:55;98964.78;;;30.17;44.30
33280;BME280;20403;43.114;12.434;2023-06-26T16:00:20;98963.53;;;30.11;44.23
33280;BME280;20403;43.114;12.434;2023-06-26T16:02:46;98956.88;;;30.05;43.24
33280;BME280;20403;43.114;12.434;2023-06-26T16:05:11;98960.69;;;30.04;42.71
33280;BME280;20403;43.114;12.434;2023-06-26T16:07:37;98947.84;;;29.93;42.65
33280;BME280;20403;43.114;12.434;2023-06-26T16:10:02;98948.69;;;29.98;42.88
33280;BME280;20403;43.114;12.434;2023-06-26T16:12:28;98949.81;;;29.97;43.02
33280;BME280;20403;43.114;12.434;2023-06-26T16:14:53;98947.91;;;29.97;43.60
33280;BME280;20403;43.114;12.434;2023-06-26T16:17:18;98956.75;;;29.98;44.02
33280;BME280;20403;43.114;12.434;2023-06-26T16:19:44;98950.53;;;29.93;44.57
33280;BME280;20403;43.114;12.434;2023-06-26T16:22:10;98952.38;;;29.89;45.30
33280;BME280;20403;43.114;12.434;2023-06-26T16:24:35;98957.41;;;29.91;46.14
33280;BME280;20403;43.114;12.434;2023-06-26T16:27:01;98960.81;;;29.88;44.06
33280;BME280;20403;43.114;12.434;2023-06-26T16:29:26;98955.69;;;29.83;43.70
33280;BME280;20403;43.114;12.434;2023-06-26T16:31:55;98950.31;;;29.83;44.11
33280;BME280;20403;43.114;12.434;2023-06-26T16:34:21;98944.50;;;29.81;45.85
33280;BME280;20403;43.114;12.434;2023-06-26T16:36:46;98951.78;;;29.80;46.07
33280;BME280;20403;43.114;12.434;2023-06-26T16:39:15;98952.56;;;29.81;46.86
33280;BME280;20403;43.114;12.434;2023-06-26T16:41:46;98950.25;;;29.79;45.81
33280;BME280;20403;43.114;12.434;2023-06-26T16:44:14;98951.38;;;29.78;46.23
33280;BME280;20403;43.114;12.434;2023-06-26T16:46:39;98952.81;;;29.72;46.28
33280;BME280;20403;43.114;12.434;2023-06-26T16:49:05;98956.84;;;29.66;46.32
33280;BME280;20403;43.114;12.434;2023-06-26T16:51:30;98962.22;;;29.66;46.74
33280;BME280;20403;43.114;12.434;2023-06-26T16:53:55;98968.19;;;29.56;46.50
33280;BME280;20403;43.114;12.434;2023-06-26T16:56:21;98966.31;;;29.60;45.67
33280;BME280;20403;43.114;12.434;2023-06-26T16:58:46;98963.84;;;29.51;45.49
33280;BME280;20403;43.114;12.434;2023-06-26T17:01:12;98966.13;;;29.49;46.11
33280;BME280;20403;43.114;12.434;2023-06-26T17:03:37;98964.09;;;29.46;45.73
33280;BME280;20403;43.114;12.434;2023-06-26T17:06:02;98961.00;;;29.44;45.47